Time;durP1;ratioP1;P1;durP2;ratioP2;P2;SDS_P1;SDS_P2;PMS_P1;PMS_P2;Temp;Humidity;BMP_temperature;BMP_pressure;BME280_temperature;BME280_humidity;BME280_pressure;Samples;Min_cycle;Max_cycle;Signal;HPM_P1;HPM_P2
2023/09/05 00:00:17;;;;;;;12.07;9.35;;;;;;;;;;4996570;28;20478;-76
2023/09/05 00:02:48;;;;;;;9.80;8.50;;;;;;;;;;5007228;28;20116;-75
2023/09/05 00:05:33;;;;;;;10.57;7.95;;;;;;;;;;5015658;28;20034;-74
2023/09/05 00:08:01;;;;;;;13.57;9.10;;;;;;;;;;5011204;28;20045;-74
2023/09/05 00:10:27;;;;;;;13.70;9.00;;;;;;;;;;5002283;28;20043;-74
2023/09/05 00:12:53;;;;;;;15.10;8.20;;;;;;;;;;5005414;28;20044;-75
2023/09/05 00:15:20;;;;;;;11.50;8.18;;;;;;;;;;5006565;28;20048;-76
2023/09/05 00:17:46;;;;;;;11.15;8.15;;;;;;;;;;5014956;28;20029;-76
2023/09/05 00:20:15;;;;;;;13.32;8.82;;;;;;;;;;4978954;28;20083;-76
2023/09/05 00:22:43;;;;;;;11.60;8.45;;;;;;;;;;5006204;28;20080;-77
2023/09/05 00:25:12;;;;;;;11.88;8.75;;;;;;;;;;5008134;28;20112;-76
2023/09/05 00:27:40;;;;;;;12.23;8.98;;;;;;;;;;5009956;28;20021;-76
2023/09/05 00:30:08;;;;;;;14.57;8.80;;;;;;;;;;4991533;28;20049;-73
2023/09/05 00:32:37;;;;;;;13.27;9.52;;;;;;;;;;5008937;28;20140;-74
2023/09/05 00:35:04;;;;;;;11.93;9.32;;;;;;;;;;4996883;28;20021;-74
2023/09/05 00:37:30;;;;;;;14.85;9.43;;;;;;;;;;5013007;28;20025;-74
2023/09/05 00:39:56;;;;;;;12.90;9.05;;;;;;;;;;5001339;28;20057;-75
2023/09/05 00:42:22;;;;;;;12.13;9.35;;;;;;;;;;4998620;28;20404;-75
2023/09/05 00:44:50;;;;;;;27.42;10.02;;;;;;;;;;5009577;28;20041;-74
2023/09/05 00:47:16;;;;;;;11.38;10.10;;;;;;;;;;5021612;28;20038;-74
2023/09/05 00:49:47;;;;;;;11.93;9.50;;;;;;;;;;4993002;28;20132;-75
2023/09/05 00:52:13;;;;;;;11.95;9.55;;;;;;;;;;4983063;28;20030;-76
2023/09/05 00:54:43;;;;;;;12.18;9.95;;;;;;;;;;5002547;28;20050;-75
2023/09/05 00:57:14;;;;;;;12.48;9.82;;;;;;;;;;5014728;28;20029;-76
2023/09/05 00:59:41;;;;;;;15.32;10.00;;;;;;;;;;5018505;28;20445;-75
2023/09/05 01:02:07;;;;;;;13.38;9.93;;;;;;;;;;4989946;28;20051;-75
2023/09/05 01:04:33;;;;;;;12.55;9.93;;;;;;;;;;5021477;28;20030;-76
2023/09/05 01:07:06;;;;;;;11.63;10.13;;;;;;;;;;4999341;28;20032;-76
2023/09/05 01:09:43;;;;;;;14.20;9.52;;;;;;;;;;5011471;28;20062;-75
2023/09/05 01:12:09;;;;;;;15.73;10.10;;;;;;;;;;5017284;28;20509;-75
2023/09/05 01:14:35;;;;;;;13.95;10.38;;;;;;;;;;5013223;28;20049;-75
2023/09/05 01:17:01;;;;;;;14.73;10.23;;;;;;;;;;4991668;28;20080;-75
2023/09/05 01:19:30;;;;;;;15.10;10.10;;;;;;;;;;4991248;28;20025;-76
2023/09/05 01:22:01;;;;;;;16.48;10.20;;;;;;;;;;4998601;28;20387;-75
2023/09/05 01:24:27;;;;;;;12.38;10.32;;;;;;;;;;4986301;28;20142;-75
2023/09/05 01:26:54;;;;;;;13.70;9.95;;;;;;;;;;4959368;28;20038;-75
2023/09/05 01:29:25;;;;;;;22.90;10.40;;;;;;;;;;4990114;28;20061;-74
2023/09/05 01:31:52;;;;;;;14.68;10.50;;;;;;;;;;4986948;28;20030;-76
2023/09/05 01:34:19;;;;;;;14.07;10.25;;;;;;;;;;4984792;28;20054;-76
2023/09/05 01:36:45;;;;;;;19.73;11.68;;;;;;;;;;4966255;28;20026;-75
2023/09/05 01:39:11;;;;;;;13.10;10.70;;;;;;;;;;4979678;28;20039;-76
2023/09/05 01:41:37;;;;;;;13.52;11.07;;;;;;;;;;4976299;28;20038;-74
2023/09/05 01:44:03;;;;;;;13.70;9.73;;;;;;;;;;4991488;28;20045;-76
2023/09/05 01:46:30;;;;;;;15.02;11.00;;;;;;;;;;4978250;28;20121;-76
2023/09/05 01:48:56;;;;;;;18.05;11.20;;;;;;;;;;4974516;28;20038;-75
2023/09/05 01:51:22;;;;;;;18.92;10.38;;;;;;;;;;4991772;28;20113;-75
2023/09/05 01:53:49;;;;;;;12.88;10.60;;;;;;;;;;4987695;28;20022;-74
2023/09/05 01:56:15;;;;;;;12.32;9.88;;;;;;;;;;4982392;28;20031;-75
2023/09/05 01:58:41;;;;;;;15.90;10.30;;;;;;;;;;4994570;28;20033;-75
2023/09/05 02:01:08;;;;;;;11.55;9.90;;;;;;;;;;4987990;28;20121;-76
2023/09/05 02:03:34;;;;;;;16.02;10.20;;;;;;;;;;4986271;28;20023;-75
2023/09/05 02:06:00;;;;;;;16.15;10.52;;;;;;;;;;5004348;28;20033;-75
2023/09/05 02:08:27;;;;;;;13.85;10.65;;;;;;;;;;4991564;28;20085;-75
2023/09/05 02:10:53;;;;;;;14.70;10.20;;;;;;;;;;4989860;28;20400;-75
2023/09/05 02:13:19;;;;;;;15.45;10.18;;;;;;;;;;5001622;28;20272;-75
2023/09/05 02:15:45;;;;;;;12.15;10.73;;;;;;;;;;4990789;28;20117;-76
2023/09/05 02:18:11;;;;;;;15.77;10.70;;;;;;;;;;4995433;28;20027;-76
2023/09/05 02:20:38;;;;;;;12.50;10.90;;;;;;;;;;4990549;28;20031;-76
2023/09/05 02:23:05;;;;;;;13.15;11.40;;;;;;;;;;4987152;28;20037;-75
2023/09/05 02:25:32;;;;;;;15.63;11.05;;;;;;;;;;5013468;28;20045;-74
2023/09/05 02:27:58;;;;;;;18.15;11.68;;;;;;;;;;5000198;28;20034;-76
2023/09/05 02:30:25;;;;;;;17.08;11.57;;;;;;;;;;4978948;28;20126;-75
2023/09/05 02:32:52;;;;;;;15.32;12.55;;;;;;;;;;5003593;28;20091;-75
2023/09/05 02:35:20;;;;;;;16.30;11.65;;;;;;;;;;5003088;28;20515;-75
2023/09/05 02:37:51;;;;;;;19.15;12.30;;;;;;;;;;4995910;28;20426;-74
2023/09/05 02:40:18;;;;;;;16.98;11.63;;;;;;;;;;5025311;28;20038;-76
2023/09/05 02:42:44;;;;;;;19.00;12.35;;;;;;;;;;5026060;28;20087;-75
2023/09/05 02:45:11;;;;;;;16.27;11.82;;;;;;;;;;5011267;28;20361;-75
2023/09/05 02:47:38;;;;;;;17.83;12.45;;;;;;;;;;5007176;28;20129;-75
2023/09/05 02:50:05;;;;;;;17.20;12.82;;;;;;;;;;4997116;28;20033;-74
2023/09/05 02:52:32;;;;;;;15.73;11.63;;;;;;;;;;5010192;28;20036;-75
2023/09/05 02:54:58;;;;;;;18.23;12.55;;;;;;;;;;4978315;28;20034;-75
2023/09/05 02:57:24;;;;;;;21.17;14.40;;;;;;;;;;4972798;28;20062;-76
2023/09/05 02:59:54;;;;;;;18.98;13.25;;;;;;;;;;4991764;28;20084;-74
2023/09/05 03:02:22;;;;;;;18.30;13.48;;;;;;;;;;5007613;28;20065;-76
2023/09/05 03:04:51;;;;;;;22.73;13.75;;;;;;;;;;5010892;28;20036;-76
2023/09/05 03:07:18;;;;;;;18.80;12.63;;;;;;;;;;5025560;28;20033;-77
2023/09/05 03:09:44;;;;;;;16.52;12.32;;;;;;;;;;4999977;28;20099;-75
2023/09/05 03:12:12;;;;;;;17.30;13.45;;;;;;;;;;4998740;28;20041;-77
2023/09/05 03:14:38;;;;;;;19.05;13.13;;;;;;;;;;4985702;28;20117;-75
2023/09/05 03:17:04;;;;;;;17.35;13.15;;;;;;;;;;4995484;28;20026;-75
2023/09/05 03:19:34;;;;;;;16.95;13.45;;;;;;;;;;5002112;28;20038;-75
2023/09/05 03:22:00;;;;;;;19.73;12.23;;;;;;;;;;4992367;28;20061;-75
2023/09/05 03:24:27;;;;;;;20.25;12.90;;;;;;;;;;4991352;28;20041;-75
2023/09/05 03:26:53;;;;;;;16.80;12.20;;;;;;;;;;5005412;28;20170;-75
2023/09/05 03:29:19;;;;;;;15.57;11.77;;;;;;;;;;4999061;28;20064;-75
2023/09/05 03:31:46;;;;;;;14.57;11.60;;;;;;;;;;4977439;28;20144;-76
2023/09/05 03:34:15;;;;;;;14.32;12.20;;;;;;;;;;4982020;28;20030;-76
2023/09/05 03:36:41;;;;;;;15.68;11.65;;;;;;;;;;5020988;28;20060;-76
2023/09/05 03:39:07;;;;;;;21.80;12.65;;;;;;;;;;5008214;28;20066;-74
2023/09/05 03:41:33;;;;;;;16.35;11.80;;;;;;;;;;5001209;28;20064;-76
2023/09/05 03:43:59;;;;;;;17.70;11.80;;;;;;;;;;4992950;28;20030;-76
2023/09/05 03:46:25;;;;;;;17.58;12.00;;;;;;;;;;5011249;28;20128;-76
2023/09/05 03:48:53;;;;;;;21.83;13.18;;;;;;;;;;5030542;28;20040;-76
2023/09/05 03:51:19;;;;;;;18.65;13.35;;;;;;;;;;4986443;28;20075;-76
2023/09/05 03:53:47;;;;;;;19.02;12.93;;;;;;;;;;5001366;28;20037;-75
2023/09/05 03:56:13;;;;;;;17.70;12.65;;;;;;;;;;5008273;28;20529;-75
2023/09/05 03:58:39;;;;;;;20.95;13.85;;;;;;;;;;5014268;28;20029;-75
2023/09/05 04:01:12;;;;;;;16.00;13.10;;;;;;;;;;4980297;28;20026;-74
2023/09/05 04:03:38;;;;;;;17.75;12.25;;;;;;;;;;4994637;28;20034;-74
2023/09/05 04:06:04;;;;;;;14.20;11.85;;;;;;;;;;5007360;28;20029;-75
2023/09/05 04:08:30;;;;;;;15.80;12.10;;;;;;;;;;4994788;28;20117;-76
2023/09/05 04:11:00;;;;;;;16.25;11.63;;;;;;;;;;5000671;28;20045;-75
2023/09/05 04:13:28;;;;;;;14.05;11.10;;;;;;;;;;5020896;28;20109;-76
2023/09/05 04:15:54;;;;;;;15.20;10.45;;;;;;;;;;4999673;28;20025;-75
2023/09/05 04:18:20;;;;;;;12.85;10.50;;;;;;;;;;5014056;28;20034;-75
2023/09/05 04:20:46;;;;;;;13.40;9.90;;;;;;;;;;4995319;28;20191;-76
2023/09/05 04:23:12;;;;;;;14.98;11.30;;;;;;;;;;5004275;28;20045;-75
2023/09/05 04:25:40;;;;;;;14.82;10.30;;;;;;;;;;5012662;28;20037;-76
2023/09/05 04:28:08;;;;;;;17.05;10.90;;;;;;;;;;4978403;28;20038;-75
2023/09/05 04:30:38;;;;;;;13.23;10.40;;;;;;;;;;5015270;28;20053;-75
2023/09/05 04:33:06;;;;;;;14.10;10.15;;;;;;;;;;5009712;28;20029;-75
2023/09/05 04:35:33;;;;;;;15.52;10.50;;;;;;;;;;5011262;28;20767;-75
2023/09/05 04:37:59;;;;;;;13.50;10.57;;;;;;;;;;4991067;28;20034;-74
2023/09/05 04:40:25;;;;;;;19.80;11.82;;;;;;;;;;4999339;28;20129;-75
2023/09/05 04:42:51;;;;;;;15.73;10.10;;;;;;;;;;4996125;28;20034;-75
2023/09/05 04:45:17;;;;;;;14.70;10.48;;;;;;;;;;5012008;28;20116;-74
2023/09/05 04:47:45;;;;;;;13.35;9.95;;;;;;;;;;4994504;28;20121;-77
2023/09/05 04:50:11;;;;;;;15.05;11.20;;;;;;;;;;5023296;28;20037;-75
2023/09/05 04:52:37;;;;;;;13.93;9.88;;;;;;;;;;5009426;28;20478;-75
2023/09/05 04:55:03;;;;;;;13.20;10.25;;;;;;;;;;5012616;28;20018;-76
2023/09/05 04:57:30;;;;;;;16.55;10.15;;;;;;;;;;4996871;28;20491;-76
2023/09/05 04:59:57;;;;;;;17.02;10.90;;;;;;;;;;5015628;28;20540;-75
2023/09/05 05:02:25;;;;;;;17.63;11.73;;;;;;;;;;5005308;28;20469;-75
2023/09/05 05:04:51;;;;;;;13.23;10.32;;;;;;;;;;5005580;28;20040;-75
2023/09/05 05:07:17;;;;;;;14.43;10.00;;;;;;;;;;5008218;28;20042;-76
2023/09/05 05:09:44;;;;;;;14.50;10.98;;;;;;;;;;5018932;28;20061;-76
2023/09/05 05:12:10;;;;;;;19.33;10.77;;;;;;;;;;5010899;28;20053;-77
2023/09/05 05:14:36;;;;;;;16.08;10.75;;;;;;;;;;4997954;28;20068;-77
2023/09/05 05:17:04;;;;;;;15.68;10.65;;;;;;;;;;5012890;28;20168;-76
2023/09/05 05:19:30;;;;;;;16.88;11.45;;;;;;;;;;4995854;28;20139;-76
2023/09/05 05:21:56;;;;;;;16.10;11.43;;;;;;;;;;5021354;28;20064;-75
2023/09/05 05:24:23;;;;;;;14.13;11.13;;;;;;;;;;5026612;28;20065;-76
2023/09/05 05:26:49;;;;;;;15.38;11.55;;;;;;;;;;5026954;28;20036;-76
2023/09/05 05:29:15;;;;;;;26.83;12.82;;;;;;;;;;4974848;28;20133;-75
2023/09/05 05:31:41;;;;;;;16.65;10.65;;;;;;;;;;4999628;28;20041;-76
2023/09/05 05:34:07;;;;;;;13.35;9.57;;;;;;;;;;5024507;28;20029;-75
2023/09/05 05:36:34;;;;;;;13.43;8.95;;;;;;;;;;5019235;28;20104;-75
2023/09/05 05:39:00;;;;;;;13.30;9.43;;;;;;;;;;4981165;28;20030;-75
2023/09/05 05:41:27;;;;;;;9.82;7.75;;;;;;;;;;5012588;28;20525;-76
2023/09/05 05:43:53;;;;;;;14.23;7.35;;;;;;;;;;5004546;28;20034;-75
2023/09/05 05:46:20;;;;;;;8.77;7.30;;;;;;;;;;5011669;28;20041;-75
2023/09/05 05:48:46;;;;;;;11.50;7.07;;;;;;;;;;5019445;28;20036;-76
2023/09/05 05:51:13;;;;;;;9.02;6.80;;;;;;;;;;5000926;28;20139;-75
2023/09/05 05:53:39;;;;;;;13.75;7.13;;;;;;;;;;5026670;28;20131;-76
2023/09/05 05:56:08;;;;;;;10.00;6.65;;;;;;;;;;5008116;28;20081;-76
2023/09/05 05:58:35;;;;;;;9.63;7.13;;;;;;;;;;5021435;28;20048;-76
2023/09/05 06:01:01;;;;;;;12.95;7.70;;;;;;;;;;4993889;28;20033;-76
2023/09/05 06:03:27;;;;;;;11.98;7.30;;;;;;;;;;5013779;28;20025;-76
2023/09/05 06:05:56;;;;;;;9.55;6.60;;;;;;;;;;4997064;28;20034;-76
2023/09/05 06:08:22;;;;;;;15.30;6.57;;;;;;;;;;5004384;28;20056;-76
2023/09/05 06:10:49;;;;;;;8.60;6.50;;;;;;;;;;4986391;28;20045;-76
2023/09/05 06:13:15;;;;;;;10.88;6.00;;;;;;;;;;5003812;28;20092;-77
2023/09/05 06:15:42;;;;;;;12.38;6.07;;;;;;;;;;5012300;28;20113;-76
2023/09/05 06:18:08;;;;;;;9.43;5.65;;;;;;;;;;5021685;28;20044;-76
2023/09/05 06:20:34;;;;;;;9.40;5.60;;;;;;;;;;5009263;28;20037;-77
2023/09/05 06:23:01;;;;;;;7.93;4.60;;;;;;;;;;5021576;28;20025;-76
2023/09/05 06:25:27;;;;;;;6.13;4.68;;;;;;;;;;4993090;28;20053;-77
2023/09/05 06:27:54;;;;;;;13.10;4.47;;;;;;;;;;5016377;28;20060;-75
2023/09/05 06:30:20;;;;;;;7.00;3.95;;;;;;;;;;5017288;28;20088;-77
2023/09/05 06:32:46;;;;;;;8.55;4.28;;;;;;;;;;5003709;28;20028;-75
2023/09/05 06:35:12;;;;;;;6.28;4.10;;;;;;;;;;5011612;28;20033;-75
2023/09/05 06:37:39;;;;;;;7.93;4.20;;;;;;;;;;5009533;28;20448;-75
2023/09/05 06:40:09;;;;;;;7.07;3.95;;;;;;;;;;5009700;28;20034;-75
2023/09/05 06:42:39;;;;;;;12.88;5.05;;;;;;;;;;4993751;28;20451;-76
2023/09/05 06:45:06;;;;;;;5.80;3.90;;;;;;;;;;5011728;28;20418;-75
2023/09/05 06:47:32;;;;;;;9.57;3.80;;;;;;;;;;5010620;28;20030;-76
2023/09/05 06:49:59;;;;;;;7.63;4.22;;;;;;;;;;5010893;28;20041;-75
2023/09/05 06:52:25;;;;;;;15.40;7.75;;;;;;;;;;5013094;28;20026;-75
2023/09/05 06:54:52;;;;;;;8.43;5.07;;;;;;;;;;5010038;28;20049;-76
2023/09/05 06:57:19;;;;;;;9.68;4.13;;;;;;;;;;5013661;28;20029;-75
2023/09/05 06:59:46;;;;;;;7.55;3.83;;;;;;;;;;5010817;28;20179;-75
2023/09/05 07:02:12;;;;;;;5.18;3.58;;;;;;;;;;5012925;28;20045;-75
2023/09/05 07:04:38;;;;;;;6.63;3.95;;;;;;;;;;4985696;28;20029;-75
2023/09/05 07:07:05;;;;;;;8.40;3.80;;;;;;;;;;5024187;28;20383;-74
2023/09/05 07:09:31;;;;;;;8.05;3.40;;;;;;;;;;4978541;28;20142;-75
2023/09/05 07:11:58;;;;;;;6.80;3.47;;;;;;;;;;5008964;28;20173;-76
2023/09/05 07:14:24;;;;;;;11.43;3.60;;;;;;;;;;5016223;28;20037;-76
2023/09/05 07:16:50;;;;;;;10.23;3.47;;;;;;;;;;5004963;28;20064;-75
2023/09/05 07:19:17;;;;;;;7.43;3.80;;;;;;;;;;4996203;28;20033;-75
2023/09/05 07:21:44;;;;;;;8.90;3.33;;;;;;;;;;5003334;28;20025;-75
2023/09/05 07:24:11;;;;;;;7.55;2.92;;;;;;;;;;4988858;28;20049;-75
2023/09/05 07:26:40;;;;;;;4.38;2.78;;;;;;;;;;4993921;28;20034;-74
2023/09/05 07:29:10;;;;;;;4.45;3.05;;;;;;;;;;5010935;28;20029;-74
2023/09/05 07:31:37;;;;;;;7.85;3.40;;;;;;;;;;4993364;28;20054;-74
2023/09/05 07:34:03;;;;;;;5.18;3.15;;;;;;;;;;5014644;28;20035;-74
2023/09/05 07:36:31;;;;;;;8.13;3.15;;;;;;;;;;5017747;28;20061;-74
2023/09/05 07:38:57;;;;;;;8.82;3.42;;;;;;;;;;4996262;28;20103;-74
2023/09/05 07:41:24;;;;;;;7.88;3.70;;;;;;;;;;5008481;28;20367;-74
2023/09/05 07:43:50;;;;;;;5.78;3.35;;;;;;;;;;5018389;28;20064;-76
2023/09/05 07:46:16;;;;;;;5.82;3.30;;;;;;;;;;5014851;28;20055;-73
2023/09/05 07:48:43;;;;;;;7.88;3.72;;;;;;;;;;5011041;28;20104;-76
2023/09/05 07:51:09;;;;;;;7.57;3.25;;;;;;;;;;5001147;28;20518;-74
2023/09/05 07:53:36;;;;;;;4.40;3.05;;;;;;;;;;4986951;28;20037;-73
2023/09/05 07:56:03;;;;;;;5.53;3.25;;;;;;;;;;5012908;28;20029;-74
2023/09/05 07:58:29;;;;;;;6.22;3.17;;;;;;;;;;5016918;28;20030;-74
2023/09/05 08:00:55;;;;;;;4.95;3.00;;;;;;;;;;5007976;28;20387;-74
2023/09/05 08:03:22;;;;;;;6.85;3.20;;;;;;;;;;5011000;28;20033;-75
2023/09/05 08:05:50;;;;;;;9.68;2.95;;;;;;;;;;5003784;28;20117;-75
2023/09/05 08:08:17;;;;;;;4.45;2.70;;;;;;;;;;5010496;28;20041;-76
2023/09/05 08:10:43;;;;;;;7.40;3.38;;;;;;;;;;4993113;28;20076;-74
2023/09/05 08:13:14;;;;;;;6.63;3.00;;;;;;;;;;4991805;28;20125;-74
2023/09/05 08:15:44;;;;;;;6.85;3.17;;;;;;;;;;5008370;28;20034;-77
2023/09/05 08:18:12;;;;;;;6.00;2.90;;;;;;;;;;5009285;28;20030;-74
2023/09/05 08:20:39;;;;;;;8.38;3.50;;;;;;;;;;5009900;28;20022;-74
2023/09/05 08:23:05;;;;;;;6.55;3.08;;;;;;;;;;4990877;28;20245;-74
2023/09/05 08:25:32;;;;;;;7.55;3.40;;;;;;;;;;5009063;28;20064;-76
2023/09/05 08:27:58;;;;;;;6.03;3.30;;;;;;;;;;5008560;28;20033;-76
2023/09/05 08:30:25;;;;;;;6.13;3.10;;;;;;;;;;4992523;28;20109;-76
2023/09/05 08:32:53;;;;;;;7.53;3.20;;;;;;;;;;4997343;28;20042;-75
2023/09/05 08:35:19;;;;;;;5.68;2.83;;;;;;;;;;4993319;28;20022;-75
2023/09/05 08:37:46;;;;;;;7.45;3.03;;;;;;;;;;4991538;28;20077;-75
2023/09/05 08:40:13;;;;;;;5.80;3.13;;;;;;;;;;5007830;28;20025;-77
2023/09/05 08:42:40;;;;;;;7.72;3.15;;;;;;;;;;4992994;28;20034;-74
2023/09/05 08:45:07;;;;;;;5.97;2.90;;;;;;;;;;5010542;28;20061;-75
2023/09/05 08:47:34;;;;;;;4.80;3.17;;;;;;;;;;5010834;28;20057;-75
2023/09/05 08:50:00;;;;;;;6.47;3.10;;;;;;;;;;4987491;28;20392;-76
2023/09/05 08:52:29;;;;;;;9.23;3.78;;;;;;;;;;5000396;28;20041;-75
2023/09/05 08:54:57;;;;;;;12.20;3.60;;;;;;;;;;5010955;28;20109;-75
2023/09/05 08:57:25;;;;;;;6.65;3.05;;;;;;;;;;4993041;28;20097;-74
2023/09/05 08:59:51;;;;;;;15.10;8.32;;;;;;;;;;4990968;28;20049;-75
2023/09/05 09:02:17;;;;;;;14.52;10.18;;;;;;;;;;4992612;28;20029;-76
2023/09/05 09:04:53;;;;;;;15.75;8.27;;;;;;;;;;4988662;28;20126;-75
2023/09/05 09:07:19;;;;;;;11.18;5.18;;;;;;;;;;5007138;28;20048;-74
2023/09/05 09:09:46;;;;;;;4.82;3.17;;;;;;;;;;5009502;28;20034;-74
2023/09/05 09:12:12;;;;;;;4.78;2.70;;;;;;;;;;5009456;28;20034;-75
2023/09/05 09:14:38;;;;;;;6.20;2.60;;;;;;;;;;4988453;28;20037;-74
2023/09/05 09:17:05;;;;;;;3.85;2.33;;;;;;;;;;4993524;28;20060;-75
2023/09/05 09:19:31;;;;;;;6.13;2.63;;;;;;;;;;5009576;28;20072;-75
2023/09/05 09:22:00;;;;;;;6.05;3.25;;;;;;;;;;5007315;28;20030;-75
2023/09/05 09:24:31;;;;;;;5.07;2.67;;;;;;;;;;4990342;28;20161;-75
2023/09/05 09:26:58;;;;;;;7.25;2.42;;;;;;;;;;5012736;28;20514;-75
2023/09/05 09:29:24;;;;;;;7.03;2.80;;;;;;;;;;5013086;28;20026;-75
2023/09/05 09:31:58;;;;;;;8.05;3.80;;;;;;;;;;5011242;28;20026;-75
2023/09/05 09:34:24;;;;;;;5.68;2.67;;;;;;;;;;5011075;28;20030;-75
2023/09/05 09:36:52;;;;;;;6.07;2.70;;;;;;;;;;4999642;28;20030;-76
2023/09/05 09:39:19;;;;;;;8.75;2.42;;;;;;;;;;5002127;28;20464;-77
2023/09/05 09:41:46;;;;;;;8.68;2.85;;;;;;;;;;4995482;28;20099;-75
2023/09/05 09:44:38;;;;;;;7.50;2.95;;;;;;;;;;5013255;28;20052;-75
2023/09/05 09:47:04;;;;;;;6.70;3.10;;;;;;;;;;5004998;28;20038;-76
2023/09/05 09:49:32;;;;;;;7.43;2.85;;;;;;;;;;4996435;28;20030;-75
2023/09/05 09:52:01;;;;;;;6.78;3.10;;;;;;;;;;5011764;28;20061;-75
2023/09/05 09:54:33;;;;;;;10.27;3.27;;;;;;;;;;5012790;28;20500;-74
2023/09/05 09:57:00;;;;;;;11.23;2.92;;;;;;;;;;4994541;28;20077;-75
2023/09/05 09:59:33;;;;;;;8.38;3.03;;;;;;;;;;5007890;28;20049;-75
2023/09/05 10:01:59;;;;;;;5.40;2.40;;;;;;;;;;5013031;28;20545;-74
2023/09/05 10:04:26;;;;;;;13.25;3.03;;;;;;;;;;4994879;28;20058;-75
2023/09/05 10:06:54;;;;;;;8.07;2.97;;;;;;;;;;4994443;28;20084;-75
2023/09/05 10:09:21;;;;;;;7.03;3.00;;;;;;;;;;4978895;28;20030;-75
2023/09/05 10:11:47;;;;;;;6.70;3.85;;;;;;;;;;5011317;28;20436;-75
2023/09/05 10:14:14;;;;;;;19.38;4.30;;;;;;;;;;5012556;28;20052;-75
2023/09/05 10:16:41;;;;;;;5.68;2.83;;;;;;;;;;5012532;28;20052;-76
2023/09/05 10:19:08;;;;;;;11.23;2.92;;;;;;;;;;4975659;28;20442;-74
2023/09/05 10:21:35;;;;;;;5.60;3.00;;;;;;;;;;4998792;28;20013;-75
2023/09/05 10:24:01;;;;;;;6.30;2.95;;;;;;;;;;4981902;28;20476;-74
2023/09/05 10:26:30;;;;;;;9.73;3.50;;;;;;;;;;5004785;28;20458;-76
2023/09/05 10:28:58;;;;;;;6.63;3.08;;;;;;;;;;5012487;28;20041;-74
2023/09/05 10:31:25;;;;;;;7.20;2.90;;;;;;;;;;4987771;28;20054;-74
2023/09/05 10:33:51;;;;;;;7.30;2.88;;;;;;;;;;5011368;28;20176;-74
2023/09/05 10:36:36;;;;;;;6.40;3.05;;;;;;;;;;5002172;28;20084;-75
2023/09/05 10:39:16;;;;;;;4.97;2.80;;;;;;;;;;4999398;28;20029;-74
2023/09/05 10:41:42;;;;;;;6.05;2.85;;;;;;;;;;5010433;28;20025;-74
2023/09/05 10:44:08;;;;;;;8.35;3.00;;;;;;;;;;4992622;28;20145;-75
2023/09/05 10:46:34;;;;;;;7.30;2.90;;;;;;;;;;5002078;28;20056;-74
2023/09/05 10:49:14;;;;;;;6.53;2.90;;;;;;;;;;5010762;28;20368;-75
2023/09/05 10:51:59;;;;;;;5.75;2.78;;;;;;;;;;5022275;28;20401;-75
2023/09/05 10:54:29;;;;;;;6.88;2.75;;;;;;;;;;5013468;28;20056;-74
2023/09/05 10:56:56;;;;;;;6.78;2.78;;;;;;;;;;4994548;28;20064;-74
2023/09/05 10:59:29;;;;;;;9.05;2.70;;;;;;;;;;5011076;28;20037;-76
2023/09/05 11:02:06;;;;;;;10.68;2.70;;;;;;;;;;5025796;28;20114;-75
2023/09/05 11:04:34;;;;;;;8.43;2.80;;;;;;;;;;5018233;28;20061;-74
2023/09/05 11:07:02;;;;;;;5.32;2.72;;;;;;;;;;5006305;28;20472;-74
2023/09/05 11:09:29;;;;;;;9.30;3.50;;;;;;;;;;4992338;28;20105;-75
2023/09/05 11:11:56;;;;;;;9.45;2.95;;;;;;;;;;5020149;28;20789;-74
2023/09/05 11:14:40;;;;;;;7.38;2.95;;;;;;;;;;5019993;28;20026;-75
2023/09/05 11:17:11;;;;;;;7.50;2.60;;;;;;;;;;4981712;28;20432;-76
2023/09/05 11:19:40;;;;;;;7.78;2.95;;;;;;;;;;4999615;28;20029;-76
2023/09/05 11:22:10;;;;;;;7.40;2.42;;;;;;;;;;5006984;28;20054;-76
2023/09/05 11:24:38;;;;;;;9.77;2.72;;;;;;;;;;4991653;28;20046;-75
2023/09/05 11:27:06;;;;;;;6.65;2.83;;;;;;;;;;5028418;28;20113;-74
2023/09/05 11:29:34;;;;;;;6.10;2.60;;;;;;;;;;5014109;28;20041;-75
2023/09/05 11:32:00;;;;;;;7.30;2.60;;;;;;;;;;5006868;28;20028;-75
2023/09/05 11:34:27;;;;;;;7.18;4.03;;;;;;;;;;5006558;28;20410;-75
2023/09/05 11:36:56;;;;;;;6.00;2.50;;;;;;;;;;5007164;28;20033;-75
2023/09/05 11:39:27;;;;;;;6.88;2.63;;;;;;;;;;4993653;28;20036;-75
2023/09/05 11:41:57;;;;;;;5.75;2.50;;;;;;;;;;5005755;28;20042;-75
2023/09/05 11:44:37;;;;;;;4.50;2.40;;;;;;;;;;5007064;28;20244;-75
2023/09/05 11:47:04;;;;;;;;;;;;;;;;;;5007162;28;20403;-74
2023/09/05 11:49:30;;;;;;;5.35;2.72;;;;;;;;;;5006541;28;19914;-73
2023/09/05 11:51:58;;;;;;;5.72;2.60;;;;;;;;;;4971444;28;20191;-74
2023/09/05 11:54:24;;;;;;;6.88;2.67;;;;;;;;;;5002090;28;20018;-75
2023/09/05 11:56:50;;;;;;;4.72;2.60;;;;;;;;;;5005170;28;20030;-74
2023/09/05 11:59:17;;;;;;;5.57;2.42;;;;;;;;;;4987350;28;20041;-73
2023/09/05 12:01:43;;;;;;;5.13;2.30;;;;;;;;;;5000978;28;20030;-75
2023/09/05 12:04:10;;;;;;;9.73;2.72;;;;;;;;;;4973664;28;20553;-74
2023/09/05 12:06:36;;;;;;;4.40;2.50;;;;;;;;;;5020287;28;20117;-77
2023/09/05 12:09:02;;;;;;;7.15;2.70;;;;;;;;;;5012536;28;20029;-75
2023/09/05 12:11:29;;;;;;;5.63;2.80;;;;;;;;;;4998426;28;20069;-75
2023/09/05 12:13:58;;;;;;;8.82;2.90;;;;;;;;;;4982707;28;20105;-76
2023/09/05 12:16:24;;;;;;;8.25;2.65;;;;;;;;;;5009952;28;20484;-75
2023/09/05 12:19:01;;;;;;;4.50;2.38;;;;;;;;;;4997631;28;20034;-76
2023/09/05 12:21:43;;;;;;;4.50;2.80;;;;;;;;;;5004546;28;20037;-76
2023/09/05 12:24:15;;;;;;;6.75;2.10;;;;;;;;;;5011089;28;20030;-74
2023/09/05 12:26:42;;;;;;;4.95;2.10;;;;;;;;;;5005442;28;20447;-74
2023/09/05 12:29:08;;;;;;;7.43;2.10;;;;;;;;;;4988812;28;20126;-76
2023/09/05 12:31:36;;;;;;;5.10;2.13;;;;;;;;;;4981447;28;20495;-75
2023/09/05 12:34:02;;;;;;;4.93;2.40;;;;;;;;;;4989569;28;20073;-74
2023/09/05 12:36:29;;;;;;;7.00;2.55;;;;;;;;;;4990428;28;20474;-75
2023/09/05 12:38:55;;;;;;;6.43;2.13;;;;;;;;;;4990770;28;20066;-74
2023/09/05 12:41:21;;;;;;;8.75;2.70;;;;;;;;;;4989970;28;20085;-77
2023/09/05 12:43:47;;;;;;;6.82;2.28;;;;;;;;;;4993030;28;20118;-76
2023/09/05 12:46:14;;;;;;;4.95;3.05;;;;;;;;;;4979742;28;20048;-75
2023/09/05 12:48:40;;;;;;;4.95;2.40;;;;;;;;;;5002062;28;20477;-76
2023/09/05 12:51:06;;;;;;;6.20;2.10;;;;;;;;;;5001677;28;20125;-76
2023/09/05 12:53:33;;;;;;;5.80;2.70;;;;;;;;;;5004986;28;20049;-75
2023/09/05 12:56:00;;;;;;;3.33;2.40;;;;;;;;;;4993745;28;20019;-76
2023/09/05 12:58:27;;;;;;;4.68;2.40;;;;;;;;;;4999664;28;20030;-76
2023/09/05 13:00:53;;;;;;;6.60;2.50;;;;;;;;;;5003648;28;20037;-75
2023/09/05 13:03:19;;;;;;;6.15;2.40;;;;;;;;;;5004729;28;20118;-82
2023/09/05 13:05:45;;;;;;;6.40;2.40;;;;;;;;;;4988679;28;20035;-76
2023/09/05 13:08:11;;;;;;;3.80;2.38;;;;;;;;;;4986351;28;20123;-76
2023/09/05 13:10:38;;;;;;;3.50;2.22;;;;;;;;;;4994160;28;20546;-76
2023/09/05 13:13:06;;;;;;;6.00;2.28;;;;;;;;;;4993432;28;20057;-75
2023/09/05 13:15:33;;;;;;;5.93;2.30;;;;;;;;;;4991715;28;20026;-75
2023/09/05 13:17:59;;;;;;;7.10;2.17;;;;;;;;;;4994450;28;20084;-75
2023/09/05 13:20:25;;;;;;;3.65;1.92;;;;;;;;;;4993255;28;20041;-76
2023/09/05 13:22:52;;;;;;;4.05;1.80;;;;;;;;;;4998360;28;20084;-76
2023/09/05 13:25:19;;;;;;;4.38;1.70;;;;;;;;;;5007530;28;20046;-75
2023/09/05 13:27:45;;;;;;;4.07;2.08;;;;;;;;;;5019081;28;20161;-76
2023/09/05 13:30:12;;;;;;;2.58;1.92;;;;;;;;;;5012539;28;20041;-75
2023/09/05 13:32:38;;;;;;;8.35;3.25;;;;;;;;;;4997563;28;20077;-76
2023/09/05 13:35:06;;;;;;;3.60;1.95;;;;;;;;;;5024243;28;20041;-75
2023/09/05 13:37:32;;;;;;;4.05;1.98;;;;;;;;;;5015955;28;20081;-75
2023/09/05 13:39:58;;;;;;;6.00;2.17;;;;;;;;;;5006610;28;20108;-76
2023/09/05 13:42:24;;;;;;;5.90;2.08;;;;;;;;;;5020954;28;20033;-77
2023/09/05 13:44:50;;;;;;;6.75;2.35;;;;;;;;;;5007446;28;20099;-75
2023/09/05 13:47:16;;;;;;;6.45;3.15;;;;;;;;;;5000547;28;20026;-74
2023/09/05 13:49:43;;;;;;;4.13;2.15;;;;;;;;;;5003646;28;20100;-75
2023/09/05 13:52:09;;;;;;;3.97;1.92;;;;;;;;;;5000647;28;20030;-76
2023/09/05 13:54:37;;;;;;;4.68;2.10;;;;;;;;;;4992026;28;20080;-75
2023/09/05 13:57:04;;;;;;;3.63;1.65;;;;;;;;;;5005750;28;20030;-75
2023/09/05 13:59:30;;;;;;;3.58;1.80;;;;;;;;;;5012603;28;20026;-75
2023/09/05 14:01:56;;;;;;;2.85;1.80;;;;;;;;;;5008378;28;20037;-76
2023/09/05 14:04:23;;;;;;;4.72;1.73;;;;;;;;;;4995678;28;20046;-76
2023/09/05 14:06:49;;;;;;;5.50;1.75;;;;;;;;;;4977135;28;20030;-75
2023/09/05 14:09:16;;;;;;;31.77;6.53;;;;;;;;;;5018326;28;20030;-75
2023/09/05 14:11:42;;;;;;;40.38;5.20;;;;;;;;;;5011441;28;20034;-76
2023/09/05 14:14:08;;;;;;;14.32;2.40;;;;;;;;;;5011483;28;20483;-76
2023/09/05 14:16:34;;;;;;;2.85;1.90;;;;;;;;;;5006565;28;20120;-75
2023/09/05 14:19:00;;;;;;;5.60;2.00;;;;;;;;;;5001230;28;20029;-75
2023/09/05 14:21:27;;;;;;;5.13;1.85;;;;;;;;;;5014193;28;20030;-76
2023/09/05 14:23:53;;;;;;;5.97;2.00;;;;;;;;;;4996192;28;20054;-77
2023/09/05 14:26:19;;;;;;;7.32;2.45;;;;;;;;;;5012742;28;20104;-76
2023/09/05 14:28:45;;;;;;;2.70;1.92;;;;;;;;;;4994538;28;20033;-75
2023/09/05 14:31:12;;;;;;;3.67;1.92;;;;;;;;;;5006141;28;20038;-74
2023/09/05 14:33:38;;;;;;;7.38;1.85;;;;;;;;;;4975536;28;20030;-75